Time;durP1;ratioP1;P1;durP2;ratioP2;P2;SDS_P1;SDS_P2;PMS_P1;PMS_P2;Temp;Humidity;BMP_temperature;BMP_pressure;BME280_temperature;BME280_humidity;BME280_pressure;Samples;Min_cycle;Max_cycle;Signal;HPM_P1;HPM_P2
2021/12/07 00:01:29;;;;;;;4.28;2.58;;;;;;;4.65;87.09;93943.75;5008031;28;20095;-66
2021/12/07 00:03:55;;;;;;;3.58;2.78;;;;;;;4.57;87.44;93932.22;5007847;28;20037;-64
2021/12/07 00:06:21;;;;;;;3.45;2.40;;;;;;;4.63;88.63;93951.50;5008204;28;20576;-62
2021/12/07 00:08:49;;;;;;;3.33;2.13;;;;;;;4.69;86.32;93947.75;5007889;28;20022;-60
2021/12/07 00:11:15;;;;;;;3.05;2.20;;;;;;;4.64;86.45;93942.94;5008085;28;20064;-62
2021/12/07 00:13:42;;;;;;;3.67;2.38;;;;;;;4.66;86.27;93941.13;5007961;28;20160;-66
2021/12/07 00:16:09;;;;;;;3.03;2.30;;;;;;;4.64;86.26;93934.44;5008179;28;20038;-62
2021/12/07 00:18:37;;;;;;;4.55;2.90;;;;;;;4.46;86.18;93908.22;5007994;28;20121;-62
2021/12/07 00:21:03;;;;;;;3.08;2.22;;;;;;;4.70;85.62;93941.75;5007204;28;20029;-59
2021/12/07 00:23:29;;;;;;;4.97;2.40;;;;;;;4.60;86.03;93937.16;5008028;28;20042;-63
2021/12/07 00:25:55;;;;;;;2.58;1.83;;;;;;;4.23;85.95;93900.97;5008119;28;20096;-63
2021/12/07 00:28:22;;;;;;;4.95;2.88;;;;;;;4.51;87.32;93940.25;5008112;28;20326;-61
2021/12/07 00:30:49;;;;;;;4.10;2.78;;;;;;;4.48;87.03;93925.09;5008312;28;20173;-60
2021/12/07 00:33:34;;;;;;;3.92;2.40;;;;;;;4.52;87.20;93935.97;5007185;28;20034;-62
2021/12/07 00:36:00;;;;;;;4.13;2.80;;;;;;;4.52;86.73;93934.22;5007994;28;20034;-59
2021/12/07 00:38:27;;;;;;;3.72;2.42;;;;;;;4.63;85.41;93955.78;5007905;28;20088;-60
2021/12/07 00:40:55;;;;;;;5.38;3.28;;;;;;;4.48;86.36;93960.84;5007761;28;20187;-60
2021/12/07 00:43:21;;;;;;;5.20;2.67;;;;;;;4.42;86.52;93956.88;5007600;28;20049;-61
2021/12/07 00:45:46;;;;;;;3.58;2.25;;;;;;;4.31;86.50;93955.84;5007376;28;20405;-61
2021/12/07 00:48:16;;;;;;;3.80;2.22;;;;;;;4.27;86.86;93950.09;5007838;28;20030;-60
2021/12/07 00:50:45;;;;;;;3.55;2.13;;;;;;;4.19;87.44;93942.84;5008026;28;20026;-60
2021/12/07 00:53:11;;;;;;;4.47;2.78;;;;;;;4.14;87.81;93924.44;5009862;28;20025;-59
2021/12/07 00:55:43;;;;;;;3.30;2.20;;;;;;;4.18;87.66;93935.28;5011378;28;20091;-60
2021/12/07 00:58:21;;;;;;;3.38;2.13;;;;;;;4.08;87.96;93927.31;5011341;28;20022;-61
2021/12/07 01:00:50;;;;;;;3.13;2.08;;;;;;;3.98;88.07;93919.34;5011088;28;20088;-60
2021/12/07 01:03:16;;;;;;;3.60;2.17;;;;;;;4.19;88.13;93953.06;5010764;28;20441;-61
2021/12/07 01:05:47;;;;;;;4.30;2.33;;;;;;;4.01;88.63;93920.91;5011024;28;20037;-61
2021/12/07 01:08:22;;;;;;;;;;;;;;;4.21;88.42;93943.63;5011320;28;20062;-62
2021/12/07 01:24:41;;;;;;;3.22;1.95;;;;;;;4.22;90.29;93954.63;5010828;28;20176;-60
2021/12/07 01:27:07;;;;;;;3.45;2.20;;;;;;;4.18;91.66;93948.88;4991170;28;20041;-61
2021/12/07 01:29:35;;;;;;;5.25;2.35;;;;;;;4.21;92.67;93941.06;4991198;28;20137;-60
2021/12/07 01:32:13;;;;;;;4.88;2.95;;;;;;;3.95;93.09;93916.16;4990485;28;20034;-60
2021/12/07 01:40:20;;;;;;;3.78;2.13;;;;;;;4.28;92.93;93935.59;5010507;28;20045;-63
2021/12/07 01:53:01;;;;;;;2.03;1.40;;;;;;;4.05;92.87;93896.91;5010317;28;20030;-61
2021/12/07 02:00:56;;;;;;;1.83;1.38;;;;;;;4.14;92.52;93913.41;5010433;28;20499;-68
2021/12/07 02:03:22;;;;;;;3.58;1.80;;;;;;;4.14;94.44;93893.00;5010014;28;20127;-63
2021/12/07 02:05:48;;;;;;;3.47;1.38;;;;;;;4.30;94.01;93906.53;5009915;28;20041;-67
2021/12/07 02:08:14;;;;;;;3.20;1.38;;;;;;;4.31;91.34;93903.09;5009482;28;20456;-65
2021/12/07 02:10:40;;;;;;;2.20;0.90;;;;;;;4.19;90.34;93883.34;5010354;28;20037;-68
2021/12/07 02:13:19;;;;;;;1.55;1.10;;;;;;;4.27;92.29;93885.50;5009998;28;20041;-63
2021/12/07 02:15:46;;;;;;;3.00;1.58;;;;;;;4.17;92.81;93886.00;5010024;28;20030;-62
2021/12/07 02:18:11;;;;;;;1.30;1.00;;;;;;;4.11;92.80;93893.16;5009518;28;20032;-61
2021/12/07 02:20:37;;;;;;;2.92;1.35;;;;;;;4.00;93.15;93875.91;5009478;28;20022;-62
2021/12/07 02:23:02;;;;;;;1.55;1.02;;;;;;;4.07;92.21;93896.78;5010005;28;20114;-59
2021/12/07 02:25:28;;;;;;;1.92;1.30;;;;;;;3.95;92.22;93898.28;5009884;28;20099;-63
2021/12/07 02:27:55;;;;;;;1.67;1.13;;;;;;;3.85;92.36;93887.78;5009575;28;20575;-66
2021/12/07 02:30:24;;;;;;;1.80;1.20;;;;;;;3.79;93.62;93877.94;5009419;28;20034;-62
2021/12/07 02:32:52;;;;;;;2.05;1.30;;;;;;;3.59;93.01;93868.78;5008845;28;20033;-62
2021/12/07 02:35:24;;;;;;;3.75;1.50;;;;;;;3.32;93.90;93826.06;5009697;28;20029;-61
2021/12/07 02:37:50;;;;;;;1.75;1.02;;;;;;;3.53;93.69;93866.59;5009161;28;20073;-63
2021/12/07 02:40:16;;;;;;;2.50;1.15;;;;;;;3.55;94.08;93859.69;5009402;28;20132;-63
2021/12/07 02:42:41;;;;;;;4.05;1.60;;;;;;;3.65;94.40;93884.56;5009664;28;20576;-64
2021/12/07 02:45:08;;;;;;;4.18;1.30;;;;;;;3.59;94.97;93884.09;5008682;28;20401;-62
2021/12/07 02:47:35;;;;;;;3.40;1.17;;;;;;;3.49;94.39;93879.50;5009068;28;20033;-61
2021/12/07 02:50:01;;;;;;;3.10;1.30;;;;;;;3.22;94.08;93847.84;5009076;28;20018;-60
2021/12/07 02:52:26;;;;;;;1.48;1.23;;;;;;;3.44;94.69;93886.56;4989789;28;20312;-62
2021/12/07 02:54:51;;;;;;;3.00;1.20;;;;;;;3.38;95.43;93858.03;4989622;28;20026;-62
2021/12/07 02:57:21;;;;;;;3.63;1.70;;;;;;;3.31;95.50;93862.63;4989128;28;20030;-63
2021/12/07 02:59:56;;;;;;;1.15;1.05;;;;;;;3.45;95.16;93893.31;4989313;28;20033;-63
2021/12/07 03:02:23;;;;;;;2.10;1.40;;;;;;;3.12;94.21;93868.69;5004514;28;20524;-61
2021/12/07 03:05:00;;;;;;;0.80;0.77;;;;;;;3.19;93.33;93898.97;5009248;28;20021;-61
2021/12/07 03:26:28;;;;;;;1.13;0.93;;;;;;;2.73;92.24;93884.31;5008925;28;20036;-64
2021/12/07 03:28:57;;;;;;;1.33;1.17;;;;;;;2.70;92.83;93881.91;5008590;28;20029;-63
2021/12/07 03:31:25;;;;;;;1.27;1.05;;;;;;;2.67;93.08;93882.91;5008530;28;20227;-65
2021/12/07 03:33:53;;;;;;;3.92;1.40;;;;;;;2.68;93.35;93883.72;5007521;28;20065;-63
2021/12/07 03:36:20;;;;;;;1.77;0.95;;;;;;;2.64;92.77;93887.31;5008387;28;20095;-65
2021/12/07 03:38:46;;;;;;;1.25;1.13;;;;;;;2.61;92.62;93883.22;5008582;28;20026;-63
2021/12/07 03:41:12;;;;;;;1.10;1.08;;;;;;;2.58;91.77;93891.81;5008423;28;20033;-63
2021/12/07 03:43:39;;;;;;;1.30;1.20;;;;;;;2.45;92.45;93879.78;5008145;28;20080;-63
2021/12/07 03:46:05;;;;;;;1.95;1.80;;;;;;;2.44;92.89;93880.66;5007997;28;20033;-62
2021/12/07 03:48:30;;;;;;;1.55;1.13;;;;;;;2.33;92.96;93863.41;5008520;28;20025;-62
2021/12/07 03:50:56;;;;;;;1.10;1.00;;;;;;;2.33;92.21;93871.84;5008231;28;20022;-65
2021/12/07 03:53:22;;;;;;;1.98;1.40;;;;;;;2.33;93.08;93874.41;5007744;28;20422;-64
2021/12/07 03:55:48;;;;;;;1.27;1.08;;;;;;;2.02;92.49;93825.03;5008051;28;20029;-65
2021/12/07 03:58:14;;;;;;;2.60;1.73;;;;;;;2.10;93.33;93836.53;5008154;28;20088;-63
2021/12/07 04:00:43;;;;;;;3.58;1.38;;;;;;;2.00;92.52;93842.09;5008337;28;20030;-63
2021/12/07 04:03:11;;;;;;;2.80;1.60;;;;;;;2.23;92.76;93885.09;5008416;28;20030;-65
2021/12/07 04:05:47;;;;;;;1.27;1.17;;;;;;;2.19;92.49;93885.22;5007785;28;20038;-61
2021/12/07 04:08:14;;;;;;;1.52;1.33;;;;;;;2.24;92.79;93884.19;5008000;28;20029;-62
2021/12/07 04:10:40;;;;;;;1.70;1.33;;;;;;;2.09;92.57;93850.97;5008163;28;20038;-64
2021/12/07 04:13:05;;;;;;;1.83;1.20;;;;;;;1.97;92.29;93842.22;5007412;28;20026;-66
2021/12/07 04:15:31;;;;;;;1.23;1.05;;;;;;;2.15;91.26;93858.31;5007470;28;20100;-64
2021/12/07 04:17:56;;;;;;;2.22;1.50;;;;;;;2.36;90.98;93892.06;5005598;28;20022;-65
2021/12/07 04:20:22;;;;;;;1.75;1.33;;;;;;;2.14;90.60;93860.94;5007709;28;20065;-62
2021/12/07 04:22:48;;;;;;;2.65;2.00;;;;;;;2.36;91.24;93883.59;5008141;28;20087;-65
2021/12/07 04:25:16;;;;;;;2.40;1.60;;;;;;;2.16;89.65;93884.56;5008310;28;20029;-63
2021/12/07 04:27:43;;;;;;;2.05;1.55;;;;;;;2.28;91.10;93894.16;5009935;28;20030;-64
2021/12/07 04:30:13;;;;;;;2.97;2.15;;;;;;;2.30;90.95;93884.72;5011961;28;20036;-64
2021/12/07 04:32:39;;;;;;;2.15;1.55;;;;;;;2.35;91.19;93887.84;5011290;28;20080;-63
2021/12/07 04:35:06;;;;;;;2.63;1.92;;;;;;;2.39;90.28;93881.72;5011904;28;20026;-65
2021/12/07 04:37:32;;;;;;;1.65;1.30;;;;;;;2.07;89.88;93849.44;5011697;28;20042;-63
2021/12/07 04:39:57;;;;;;;3.20;1.70;;;;;;;2.23;90.57;93878.31;5011246;28;20436;-61
2021/12/07 04:42:25;;;;;;;3.15;2.20;;;;;;;2.19;90.77;93876.78;5011760;28;20026;-66
2021/12/07 04:44:55;;;;;;;1.95;1.42;;;;;;;2.07;90.02;93885.84;5011155;28;20022;-63
2021/12/07 04:47:29;;;;;;;2.28;1.38;;;;;;;2.03;91.04;93886.88;5011623;28;20029;-61
2021/12/07 04:58:00;;;;;;;3.25;2.10;;;;;;;1.90;91.14;93881.53;5011045;28;20112;-63
2021/12/07 05:00:27;;;;;;;2.53;1.98;;;;;;;1.85;90.84;93873.31;5011308;28;20105;-63
2021/12/07 05:02:58;;;;;;;2.90;1.65;;;;;;;1.69;90.51;93893.56;5006442;28;20034;-65
2021/12/07 05:05:29;;;;;;;2.27;1.50;;;;;;;1.51;90.87;93884.22;5008276;28;20030;-65
2021/12/07 05:07:57;;;;;;;1.85;1.65;;;;;;;1.43;90.93;93892.22;5007170;28;20447;-67
2021/12/07 05:24:04;;;;;;;4.30;2.45;;;;;;;1.18;91.30;93867.09;5007793;28;20577;-64
2021/12/07 05:40:06;;;;;;;3.28;2.25;;;;;;;1.25;90.08;93886.25;5010752;28;20705;-61
2021/12/07 05:42:32;;;;;;;2.53;1.75;;;;;;;1.27;89.59;93885.28;5009174;28;20033;-62
2021/12/07 05:44:57;;;;;;;2.63;1.83;;;;;;;1.23;89.93;93883.78;5009928;28;20667;-62
2021/12/07 05:47:23;;;;;;;1.95;1.60;;;;;;;1.18;89.48;93867.09;5010483;28;20029;-62
2021/12/07 05:49:50;;;;;;;2.90;1.70;;;;;;;1.03;89.17;93866.91;5010588;28;20033;-64
2021/12/07 05:52:15;;;;;;;2.65;1.92;;;;;;;1.21;89.97;93880.47;5010321;28;20477;-62
2021/12/07 05:54:41;;;;;;;2.38;1.83;;;;;;;1.07;89.18;93872.66;5009574;28;20032;-63
2021/12/07 05:57:06;;;;;;;4.18;2.38;;;;;;;0.69;90.07;93820.16;5009816;28;20033;-64
2021/12/07 05:59:32;;;;;;;2.25;1.77;;;;;;;1.04;89.58;93871.06;5010130;28;20125;-60
2021/12/07 06:01:58;;;;;;;3.28;2.25;;;;;;;1.15;89.48;93880.75;5010275;28;20030;-63
2021/12/07 06:04:23;;;;;;;4.43;2.55;;;;;;;1.16;88.81;93882.38;5009485;28;20424;-64
2021/12/07 06:06:49;;;;;;;2.80;2.00;;;;;;;1.15;88.56;93883.31;5009459;28;20116;-62
2021/12/07 06:09:14;;;;;;;4.60;2.40;;;;;;;0.81;88.96;93845.88;5009274;28;20029;-61
2021/12/07 06:11:42;;;;;;;3.30;2.45;;;;;;;1.02;89.41;93875.41;5010244;28;20030;-63
2021/12/07 06:14:09;;;;;;;4.40;2.72;;;;;;;1.14;89.38;93881.63;5009586;28;20026;-63
2021/12/07 06:16:35;;;;;;;3.55;2.15;;;;;;;0.71;88.33;93827.69;5009414;28;20028;-67
2021/12/07 06:19:00;;;;;;;3.10;2.20;;;;;;;0.95;88.75;93868.91;5009616;28;20026;-63
2021/12/07 06:21:28;;;;;;;4.38;2.70;;;;;;;0.91;88.78;93870.78;5009239;28;20164;-65
2021/12/07 06:23:54;;;;;;;2.42;2.05;;;;;;;0.91;89.21;93880.94;5009248;28;20041;-63
2021/12/07 06:26:20;;;;;;;3.40;2.22;;;;;;;0.94;89.61;93879.19;5004328;28;20408;-63
2021/12/07 06:28:46;;;;;;;3.75;2.58;;;;;;;0.96;89.22;93890.06;5006217;28;20096;-60
2021/12/07 06:31:11;;;;;;;3.10;2.40;;;;;;;0.95;89.16;93888.41;5005808;28;20500;-61
2021/12/07 06:33:36;;;;;;;3.42;2.50;;;;;;;0.97;89.46;93884.09;5006168;28;20033;-63
2021/12/07 06:36:04;;;;;;;3.72;2.80;;;;;;;0.96;88.60;93878.19;5005764;28;20051;-61
2021/12/07 06:38:32;;;;;;;3.53;2.78;;;;;;;0.96;88.69;93882.47;5005897;28;20085;-60
2021/12/07 06:40:59;;;;;;;2.85;2.10;;;;;;;0.91;88.23;93886.00;5005328;28;20115;-62
2021/12/07 06:43:25;;;;;;;5.05;2.65;;;;;;;0.85;88.50;93883.75;5005794;28;20037;-64
2021/12/07 06:45:53;;;;;;;4.53;2.13;;;;;;;0.83;88.35;93884.69;5005549;28;20049;-65
2021/12/07 06:48:18;;;;;;;2.33;1.88;;;;;;;0.47;88.56;93825.31;5005568;28;20095;-62
2021/12/07 06:50:44;;;;;;;3.85;2.58;;;;;;;0.66;88.45;93870.22;5003886;28;20039;-63
2021/12/07 06:53:10;;;;;;;5.00;3.00;;;;;;;0.41;89.33;93805.31;5005345;28;20123;-63
2021/12/07 06:55:35;;;;;;;3.67;2.83;;;;;;;0.97;88.97;93895.09;5006083;28;20041;-63
2021/12/07 06:58:02;;;;;;;3.10;2.38;;;;;;;0.43;88.29;93816.22;5006090;28;20034;-67
2021/12/07 07:00:28;;;;;;;3.60;2.40;;;;;;;0.79;88.74;93861.19;5008520;28;20029;-67
2021/12/07 07:02:53;;;;;;;4.22;2.53;;;;;;;0.81;88.26;93869.53;5007002;28;20036;-66
2021/12/07 07:05:19;;;;;;;4.80;2.70;;;;;;;0.88;88.55;93885.31;5008807;28;20639;-65
2021/12/07 07:07:46;;;;;;;4.03;2.95;;;;;;;0.86;88.95;93882.84;5008520;28;20493;-65
2021/12/07 07:10:15;;;;;;;4.00;2.35;;;;;;;0.62;88.81;93863.59;5006977;28;20049;-67
2021/12/07 07:12:41;;;;;;;4.45;2.40;;;;;;;0.46;89.03;93833.84;5008716;28;20030;-64
2021/12/07 07:15:08;;;;;;;4.95;2.78;;;;;;;0.00;88.91;93772.41;5008607;28;20034;-64
2021/12/07 07:17:34;;;;;;;5.05;3.17;;;;;;;-0.07;89.70;93758.31;5008817;28;20048;-65
2021/12/07 07:20:01;;;;;;;5.38;3.00;;;;;;;0.46;89.78;93838.91;5008410;28;20025;-66
2021/12/07 07:22:27;;;;;;;3.25;2.33;;;;;;;0.70;89.47;93887.75;5008118;28;20029;-68
2021/12/07 07:24:52;;;;;;;3.65;2.25;;;;;;;0.60;89.82;93871.28;5008530;28;20048;-67
2021/12/07 07:27:19;;;;;;;4.25;2.67;;;;;;;0.64;89.75;93877.03;5008662;28;20381;-73
2021/12/07 07:29:44;;;;;;;5.53;2.95;;;;;;;0.31;89.67;93824.31;5007586;28;20029;-70
2021/12/07 07:32:10;;;;;;;7.15;2.92;;;;;;;0.48;89.64;93864.22;5008038;28;20504;-65
2021/12/07 07:34:36;;;;;;;5.93;3.42;;;;;;;0.48;90.45;93846.44;5008392;28;20030;-66
2021/12/07 07:37:02;;;;;;;5.65;3.20;;;;;;;0.53;90.15;93873.25;5004974;28;20146;-63
2021/12/07 07:39:27;;;;;;;3.78;2.40;;;;;;;0.53;89.83;93854.69;5005172;28;20038;-61
2021/12/07 07:41:53;;;;;;;6.47;3.30;;;;;;;0.67;90.23;93879.44;5004924;28;20022;-61
2021/12/07 07:44:19;;;;;;;4.82;2.67;;;;;;;0.69;90.03;93895.47;5004218;28;20069;-61
2021/12/07 07:46:44;;;;;;;4.30;3.00;;;;;;;0.61;90.05;93880.56;5004397;28;20029;-58
2021/12/07 07:49:10;;;;;;;3.97;2.75;;;;;;;0.52;89.64;93891.91;5005216;28;20033;-60
2021/12/07 07:51:36;;;;;;;4.30;2.38;;;;;;;0.57;90.72;93890.88;5020086;28;20038;-61
2021/12/07 07:54:02;;;;;;;5.82;3.80;;;;;;;0.41;90.79;93863.66;5004741;28;20520;-62
2021/12/07 07:56:29;;;;;;;4.53;2.33;;;;;;;0.32;90.38;93852.16;5004031;28;20413;-60
2021/12/07 07:58:55;;;;;;;2.53;1.92;;;;;;;0.43;90.37;93879.63;5005123;28;20559;-62
2021/12/07 08:01:23;;;;;;;4.22;2.95;;;;;;;0.45;90.53;93887.16;5006042;28;20030;-60
2021/12/07 08:03:52;;;;;;;4.30;3.03;;;;;;;0.37;91.66;93864.66;5008379;28;20041;-61
2021/12/07 08:06:18;;;;;;;10.82;3.30;;;;;;;0.23;90.66;93831.44;5008386;28;20026;-60
2021/12/07 08:08:44;;;;;;;10.27;2.97;;;;;;;0.57;90.20;93888.34;5008213;28;20609;-60
2021/12/07 08:11:09;;;;;;;7.70;4.00;;;;;;;0.62;90.57;93888.97;5008916;28;20137;-62
2021/12/07 08:13:35;;;;;;;5.03;2.63;;;;;;;0.09;89.70;93817.63;5009267;28;20094;-59
2021/12/07 08:16:00;;;;;;;6.00;3.65;;;;;;;0.62;90.88;93886.44;5012043;28;20054;-65
2021/12/07 08:18:26;;;;;;;4.85;3.55;;;;;;;0.52;89.96;93879.22;5010431;28;20493;-60
2021/12/07 08:20:52;;;;;;;6.70;3.60;;;;;;;0.58;90.54;93902.69;5011953;28;20095;-62
2021/12/07 08:23:17;;;;;;;4.68;3.05;;;;;;;0.43;90.21;93884.69;5010254;28;20092;-60
2021/12/07 08:25:46;;;;;;;7.20;3.85;;;;;;;0.48;90.62;93887.03;5012052;28;20032;-60
2021/12/07 08:28:13;;;;;;;5.72;3.83;;;;;;;0.55;90.92;93898.56;5012062;28;20030;-59
2021/12/07 08:30:43;;;;;;;4.97;3.45;;;;;;;0.49;90.94;93898.81;5010919;28;20053;-59
2021/12/07 08:33:09;;;;;;;7.97;4.65;;;;;;;0.58;90.99;93895.91;5011699;28;20029;-63
2021/12/07 08:35:35;;;;;;;7.03;4.97;;;;;;;0.60;91.30;93893.31;5011975;28;20037;-65
2021/12/07 08:38:01;;;;;;;6.03;3.25;;;;;;;0.61;89.76;93902.53;5011586;28;20049;-62
2021/12/07 08:40:29;;;;;;;5.13;3.42;;;;;;;0.59;90.00;93901.78;5011453;28;20122;-55
2021/12/07 08:42:57;;;;;;;6.72;3.83;;;;;;;0.09;90.35;93807.47;5011613;28;20025;-60
2021/12/07 08:45:24;;;;;;;5.95;3.67;;;;;;;0.78;90.02;93912.81;5010485;28;20113;-68
2021/12/07 08:47:50;;;;;;;5.35;3.45;;;;;;;0.78;89.37;93899.31;5011558;28;20022;-66
2021/12/07 08:50:22;;;;;;;4.63;2.67;;;;;;;0.59;88.55;93899.25;5011484;28;20029;-64
2021/12/07 08:52:51;;;;;;;5.80;3.15;;;;;;;0.77;89.14;93918.78;5011484;28;20024;-67
2021/12/07 09:00:47;;;;;;;7.25;3.13;;;;;;;0.44;88.88;93881.25;5011504;28;20037;-54
2021/12/07 09:03:12;;;;;;;4.57;2.67;;;;;;;0.66;88.66;93928.56;5010836;28;20477;-58
2021/12/07 09:05:38;;;;;;;4.28;2.92;;;;;;;0.65;89.67;93926.91;5010468;28;20091;-64
2021/12/07 09:08:04;;;;;;;3.03;2.60;;;;;;;0.62;90.19;93929.56;5010902;28;20026;-59
2021/12/07 09:10:30;;;;;;;4.60;3.42;;;;;;;0.62;90.10;93919.44;5010842;28;20025;-58
2021/12/07 09:12:55;;;;;;;5.00;3.50;;;;;;;0.35;90.05;93881.66;5010237;28;20030;-59
2021/12/07 09:15:21;;;;;;;6.18;4.00;;;;;;;0.76;89.91;93927.28;5010547;28;20045;-64
2021/12/07 09:17:46;;;;;;;6.68;3.33;;;;;;;0.60;89.94;93896.66;5011143;28;20500;-64
2021/12/07 09:20:15;;;;;;;5.68;3.63;;;;;;;0.63;89.52;93908.41;5010355;28;20022;-62
2021/12/07 09:22:44;;;;;;;5.97;3.75;;;;;;;0.68;90.29;93924.25;5009833;28;20026;-59
2021/12/07 09:25:09;;;;;;;7.15;3.83;;;;;;;0.64;90.16;93910.88;5011237;28;20053;-62
2021/12/07 09:27:35;;;;;;;5.28;3.75;;;;;;;0.68;89.74;93909.03;5010458;28;20547;-60
2021/12/07 09:30:00;;;;;;;4.15;3.33;;;;;;;0.65;89.59;93916.75;5010934;28;20449;-57
2021/12/07 09:32:26;;;;;;;4.30;2.67;;;;;;;0.66;89.94;93910.81;5009985;28;20056;-60
2021/12/07 09:34:51;;;;;;;7.85;4.55;;;;;;;0.79;90.20;93908.56;5010724;28;20050;-59
2021/12/07 09:37:17;;;;;;;4.60;3.58;;;;;;;0.85;89.56;93916.75;5009733;28;20100;-59
2021/12/07 09:39:42;;;;;;;4.53;2.70;;;;;;;0.48;88.27;93889.56;5011158;28;20045;-63
2021/12/07 09:42:08;;;;;;;4.13;2.60;;;;;;;0.64;88.72;93908.34;5010330;28;20504;-62
2021/12/07 09:44:34;;;;;;;6.70;4.25;;;;;;;0.65;89.07;93888.84;5009765;28;20045;-59
2021/12/07 09:46:59;;;;;;;7.18;4.40;;;;;;;0.56;89.72;93864.72;5010354;28;20029;-63
2021/12/07 09:49:25;;;;;;;5.43;3.65;;;;;;;0.84;88.31;93901.59;5008826;28;20050;-62
2021/12/07 09:51:50;;;;;;;4.80;3.53;;;;;;;0.44;88.10;93829.72;5010255;28;20106;-56
2021/12/07 09:54:17;;;;;;;5.68;3.67;;;;;;;1.01;88.58;93898.31;5009578;28;20040;-61
2021/12/07 09:56:42;;;;;;;6.00;3.35;;;;;;;0.60;87.02;93824.81;5009537;28;20041;-58
2021/12/07 09:59:09;;;;;;;5.50;3.42;;;;;;;0.68;88.11;93854.00;5010273;28;20513;-60
2021/12/07 10:01:37;;;;;;;7.57;4.15;;;;;;;0.96;88.91;93900.22;5009286;28;20042;-61
2021/12/07 10:04:03;;;;;;;6.63;4.78;;;;;;;0.77;87.98;93855.34;5010204;28;20040;-62
2021/12/07 10:06:28;;;;;;;4.88;3.65;;;;;;;1.07;87.96;93900.59;5009675;28;20042;-62
2021/12/07 10:08:54;;;;;;;6.82;4.13;;;;;;;1.04;86.78;93882.94;5009698;28;20026;-61
2021/12/07 10:11:20;;;;;;;5.70;4.25;;;;;;;0.64;86.90;93817.00;5009733;28;20053;-60
2021/12/07 10:13:48;;;;;;;8.75;4.90;;;;;;;1.11;87.38;93886.84;5009160;28;20440;-60
2021/12/07 10:16:16;;;;;;;5.55;4.03;;;;;;;0.99;86.72;93875.53;5009375;28;20029;-60
2021/12/07 10:18:42;;;;;;;6.53;4.70;;;;;;;1.00;87.21;93871.25;5009790;28;20109;-61
2021/12/07 10:21:27;;;;;;;4.65;3.38;;;;;;;1.24;86.32;93904.91;5009209;28;20105;-61
2021/12/07 10:24:07;;;;;;;4.55;3.78;;;;;;;1.17;86.28;93898.47;5008997;28;20044;-58
2021/12/07 10:26:39;;;;;;;5.78;4.72;;;;;;;0.52;87.43;93790.44;5009153;28;20053;-58
2021/12/07 10:29:08;;;;;;;8.43;4.05;;;;;;;1.15;87.56;93887.53;5009309;28;20040;-59
2021/12/07 10:31:40;;;;;;;4.35;3.20;;;;;;;1.27;86.44;93882.72;5008878;28;20034;-59
2021/12/07 10:34:16;;;;;;;5.97;3.85;;;;;;;1.34;85.79;93882.47;5008302;28;20038;-60
2021/12/07 10:36:43;;;;;;;5.78;3.13;;;;;;;1.27;86.14;93884.47;5008962;28;20137;-61
2021/12/07 10:39:18;;;;;;;5.30;3.63;;;;;;;1.41;85.21;93887.22;5009329;28;20042;-58
2021/12/07 10:41:46;;;;;;;5.13;3.00;;;;;;;1.19;86.17;93894.94;5009375;28;20481;-65
2021/12/07 10:44:25;;;;;;;5.88;3.13;;;;;;;1.29;85.11;93873.31;5008854;28;20089;-61
2021/12/07 10:46:58;;;;;;;4.70;3.50;;;;;;;1.26;85.70;93878.56;5009308;28;20517;-62
2021/12/07 10:49:38;;;;;;;6.32;3.40;;;;;;;1.35;85.77;93879.03;5008965;28;20038;-60
2021/12/07 10:52:23;;;;;;;6.07;4.03;;;;;;;1.47;86.01;93883.56;5009308;28;20034;-62
2021/12/07 10:55:00;;;;;;;4.72;3.38;;;;;;;1.32;85.29;93881.72;5008961;28;20505;-63
2021/12/07 10:57:38;;;;;;;8.43;4.07;;;;;;;0.99;86.13;93841.72;5007531;28;20559;-60
2021/12/07 11:00:03;;;;;;;6.10;4.75;;;;;;;1.30;86.34;93879.25;5008840;28;20022;-59
2021/12/07 11:02:33;;;;;;;7.20;4.72;;;;;;;1.26;85.02;93878.56;5008764;28;20040;-61
2021/12/07 11:05:02;;;;;;;5.50;3.92;;;;;;;1.40;84.66;93872.84;5009122;28;20053;-61
2021/12/07 11:07:30;;;;;;;7.30;4.78;;;;;;;1.29;84.83;93835.22;5008342;28;20033;-65
2021/12/07 11:10:07;;;;;;;8.18;4.43;;;;;;;1.49;84.20;93850.44;5008343;28;20074;-69
2021/12/07 11:15:30;;;;;;;5.10;3.50;;;;;;;1.37;84.26;93847.56;5008642;28;20109;-60
2021/12/07 11:18:00;;;;;;;5.80;3.70;;;;;;;1.28;84.37;93848.84;5008658;28;20064;-59
2021/12/07 11:20:27;;;;;;;4.88;3.97;;;;;;;1.32;84.68;93839.34;5006410;28;20044;-63
2021/12/07 11:22:58;;;;;;;4.25;3.53;;;;;;;1.38;84.26;93844.16;5008630;28;20572;-60
2021/12/07 11:31:32;;;;;;;4.13;3.25;;;;;;;0.80;85.97;93850.13;5008112;28;20057;-61
2021/12/07 11:34:22;;;;;;;5.00;3.45;;;;;;;0.99;85.96;93857.75;5008434;28;20412;-63
2021/12/07 11:37:04;;;;;;;5.57;3.58;;;;;;;1.05;84.84;93844.78;5001841;28;20038;-59
2021/12/07 11:40:03;;;;;;;6.05;4.30;;;;;;;1.23;84.73;93839.75;5008459;28;20116;-61
2021/12/07 11:42:35;;;;;;;4.53;3.20;;;;;;;1.24;83.96;93861.75;4966150;28;20533;-63
2021/12/07 11:45:15;;;;;;;5.28;3.65;;;;;;;1.21;83.47;93880.47;4966384;28;20093;-60
2021/12/07 11:47:44;;;;;;;7.40;3.55;;;;;;;1.21;83.15;93860.16;4966805;28;20089;-59
2021/12/07 11:50:13;;;;;;;4.47;3.08;;;;;;;1.12;83.36;93868.19;4966641;28;20034;-61
2021/12/07 11:52:39;;;;;;;2.45;1.92;;;;;;;0.83;82.47;93866.94;4965867;28;20034;-59
2021/12/07 11:55:06;;;;;;;6.20;3.83;;;;;;;0.85;84.27;93863.47;4966785;28;20046;-64
2021/12/07 11:57:31;;;;;;;4.55;3.17;;;;;;;0.69;84.48;93840.44;4976356;28;20642;-60
2021/12/07 11:59:57;;;;;;;7.07;4.68;;;;;;;-0.13;84.28;93677.50;4976260;28;20035;-65
2021/12/07 12:02:42;;;;;;;6.07;3.90;;;;;;;1.03;83.87;93851.66;4958605;28;20035;-60
2021/12/07 12:05:08;;;;;;;3.60;2.95;;;;;;;0.93;83.45;93847.06;4966744;28;20039;-60
2021/12/07 12:07:33;;;;;;;5.68;5.00;;;;;;;0.99;84.01;93839.19;4966118;28;20093;-65
2021/12/07 12:09:59;;;;;;;5.68;4.30;;;;;;;1.25;83.59;93850.69;4966484;28;20042;-62
2021/12/07 12:12:32;;;;;;;3.85;2.80;;;;;;;1.08;81.69;93856.50;4966269;28;20089;-63
2021/12/07 12:15:28;;;;;;;5.90;4.13;;;;;;;1.15;83.15;93852.81;4966379;28;20031;-70
2021/12/07 12:18:20;;;;;;;8.15;4.70;;;;;;;1.14;82.22;93815.63;4984038;28;20041;-63
2021/12/07 12:21:13;;;;;;;8.77;5.68;;;;;;;1.56;82.07;93851.81;5007546;28;20030;-66
2021/12/07 12:23:49;;;;;;;7.18;4.57;;;;;;;1.64;80.28;93845.47;5007923;28;20060;-64
2021/12/07 12:26:21;;;;;;;8.68;5.72;;;;;;;1.67;81.00;93846.22;5007895;28;20036;-62
2021/12/07 12:28:48;;;;;;;14.80;5.32;;;;;;;1.74;79.99;93845.88;5007617;28;20034;-61
2021/12/07 12:31:14;;;;;;;6.72;4.50;;;;;;;1.57;79.78;93840.75;5007868;28;20034;-67
2021/12/07 12:33:44;;;;;;;5.57;4.78;;;;;;;1.59;80.25;93838.97;5007252;28;20043;-67
2021/12/07 12:36:09;;;;;;;6.63;4.85;;;;;;;1.43;80.68;93826.97;5008665;28;20037;-60
2021/12/07 12:38:35;;;;;;;9.52;6.05;;;;;;;1.32;82.05;93816.50;5007645;28;20414;-62
2021/12/07 12:41:07;;;;;;;11.23;6.72;;;;;;;1.54;81.84;93839.19;5007725;28;20164;-65
2021/12/07 12:43:49;;;;;;;7.28;5.55;;;;;;;1.43;81.58;93841.41;5006939;28;20061;-64
2021/12/07 12:46:18;;;;;;;6.45;4.45;;;;;;;1.49;81.56;93847.91;5007343;28;20052;-64
2021/12/07 12:48:50;;;;;;;8.43;6.07;;;;;;;1.49;82.13;93845.38;5009680;28;20097;-67
2021/12/07 12:51:18;;;;;;;6.20;4.97;;;;;;;1.29;80.52;93850.47;5011550;28;20120;-65
2021/12/07 12:53:45;;;;;;;8.48;6.13;;;;;;;1.21;82.17;93852.53;5011392;28;20102;-65
2021/12/07 12:56:17;;;;;;;5.90;4.15;;;;;;;1.16;81.93;93863.78;5011419;28;20038;-66
2021/12/07 12:58:55;;;;;;;6.07;4.47;;;;;;;1.14;82.08;93866.41;5011338;28;20022;-64
2021/12/07 13:01:31;;;;;;;6.13;5.40;;;;;;;1.05;81.70;93847.34;5011525;28;20132;-63
2021/12/07 13:04:21;;;;;;;6.78;3.83;;;;;;;1.14;82.53;93857.97;5011344;28;20190;-60
2021/12/07 13:09:45;;;;;;;8.57;5.25;;;;;;;1.14;82.63;93863.06;5009969;28;20033;-63
2021/12/07 13:12:19;;;;;;;4.68;3.70;;;;;;;1.08;81.60;93866.66;5011111;28;20029;-67
2021/12/07 13:14:57;;;;;;;6.78;4.07;;;;;;;1.06;82.32;93856.59;5011118;28;20034;-59
2021/12/07 13:17:25;;;;;;;6.18;4.22;;;;;;;0.96;82.22;93847.72;5010799;28;20099;-60
2021/12/07 13:20:21;;;;;;;5.20;4.25;;;;;;;0.82;82.83;93861.03;5011194;28;20041;-59
2021/12/07 13:22:56;;;;;;;7.10;4.63;;;;;;;0.68;82.97;93855.75;5011052;28;20472;-61
2021/12/07 13:25:32;;;;;;;10.55;7.07;;;;;;;0.81;83.19;93864.47;5011445;28;20032;-63
2021/12/07 13:28:10;;;;;;;8.05;5.43;;;;;;;0.85;82.13;93873.59;5010691;28;20038;-61
2021/12/07 13:30:45;;;;;;;6.65;5.20;;;;;;;0.91;81.63;93877.56;5010861;28;20850;-63
2021/12/07 13:33:18;;;;;;;9.23;5.88;;;;;;;0.71;80.98;93848.00;5010683;28;20378;-62
2021/12/07 13:35:45;;;;;;;9.02;5.45;;;;;;;0.94;81.40;93871.56;5010762;28;20053;-62